createdAt,value
2023-06-11T00:00:10.747Z,101139.09
2023-06-11T00:02:40.623Z,101140.97
2023-06-11T00:05:10.475Z,101132.06
2023-06-11T00:07:39.808Z,101149.16
2023-06-11T00:10:08.282Z,101141.16
2023-06-11T00:12:36.113Z,101143.06
2023-06-11T00:15:06.063Z,101143.97
2023-06-11T00:17:34.410Z,101142.25
2023-06-11T00:20:10.705Z,101138.69
2023-06-11T00:22:39.150Z,101145.06
2023-06-11T00:25:08.058Z,101144.22
2023-06-11T00:27:36.462Z,101147.88
2023-06-11T00:30:07.528Z,101141.72
2023-06-11T00:32:36.037Z,101148.91
2023-06-11T00:37:36.793Z,101149.03
2023-06-11T00:40:04.987Z,101151.75
2023-06-11T00:42:34.590Z,101159.84
2023-06-11T00:45:04.727Z,101157.22
2023-06-11T00:47:35.153Z,101162.63
2023-06-11T00:50:05.273Z,101164.50
2023-06-11T00:52:33.158Z,101162.81
2023-06-11T00:55:04.071Z,101161.97
2023-06-11T00:57:33.004Z,101168.22
2023-06-11T01:00:01.770Z,101166.53
2023-06-11T01:02:37.838Z,101166.59
2023-06-11T01:05:08.921Z,101180.03
2023-06-11T01:07:38.294Z,101175.59
2023-06-11T01:10:07.826Z,101178.38
2023-06-11T01:12:37.171Z,101181.09
2023-06-11T01:15:05.651Z,101178.50
2023-06-11T01:17:42.432Z,101176.75
2023-06-11T01:20:15.382Z,101183.06
2023-06-11T01:23:17.417Z,101187.66
2023-06-11T01:25:52.614Z,101195.75
2023-06-11T01:28:28.088Z,101189.59
2023-06-11T01:30:59.169Z,101198.59
2023-06-11T01:33:28.455Z,101194.19
2023-06-11T01:35:59.508Z,101196.91
2023-06-11T01:38:35.968Z,101198.69
2023-06-11T01:41:04.561Z,101195.16
2023-06-11T01:43:34.116Z,101191.66
2023-06-11T01:46:01.969Z,101201.53
2023-06-11T01:48:29.667Z,101198.00
2023-06-11T01:50:57.285Z,101199.78
2023-06-11T01:53:25.596Z,101199.88
2023-06-11T01:55:53.478Z,101198.09
2023-06-11T01:58:21.152Z,101203.47
2023-06-11T02:00:50.418Z,101195.44
2023-06-11T02:03:18.271Z,101197.31
2023-06-11T02:05:46.405Z,101195.56
2023-06-11T02:08:14.251Z,101199.16
2023-06-11T02:10:41.938Z,101206.31
2023-06-11T02:13:09.589Z,101207.28
2023-06-11T02:15:37.289Z,101212.72
2023-06-11T02:18:06.938Z,101202.94
2023-06-11T02:20:34.681Z,101204.78
2023-06-11T02:23:03.278Z,101203.06
2023-06-11T02:25:30.937Z,101204.91
2023-06-11T02:27:58.568Z,101207.63
2023-06-11T02:30:27.552Z,101214.81
2023-06-11T02:32:55.283Z,101214.00
2023-06-11T02:35:24.583Z,101215.84
2023-06-11T02:37:52.290Z,101216.75
2023-06-11T02:40:20.092Z,101225.75
2023-06-11T02:42:47.921Z,101222.25
2023-06-11T02:45:15.565Z,101223.16
2023-06-11T02:47:43.286Z,101224.09
2023-06-11T02:50:11.529Z,101231.28
2023-06-11T02:52:40.846Z,101226.84
2023-06-11T02:55:09.464Z,101225.16
2023-06-11T02:57:37.735Z,101233.22
2023-06-11T03:00:06.905Z,101226.16
2023-06-11T03:02:34.957Z,101226.19
2023-06-11T03:05:02.705Z,101230.69
2023-06-11T03:07:31.504Z,101229.84
2023-06-11T03:10:03.290Z,101238.78
2023-06-11T03:12:33.431Z,101235.25
2023-06-11T03:15:01.783Z,101237.09
2023-06-11T03:17:29.488Z,101238.91
2023-06-11T03:19:57.572Z,101235.38
2023-06-11T03:22:25.585Z,101245.19
2023-06-11T03:24:53.258Z,101240.78
2023-06-11T03:27:31.179Z,101239.91
2023-06-11T03:29:59.111Z,101240.81
2023-06-11T03:32:27.093Z,101236.38
2023-06-11T03:34:54.852Z,101244.41
2023-06-11T03:37:24.748Z,101247.97
2023-06-11T03:39:56.600Z,101242.63
2023-06-11T03:42:24.856Z,101238.22
2023-06-11T03:44:56.818Z,101240.88
2023-06-11T03:47:26.751Z,101242.66
2023-06-11T03:49:54.607Z,101240.91
2023-06-11T03:52:22.353Z,101240.91
2023-06-11T03:54:50.303Z,101242.69
2023-06-11T03:57:19.618Z,101240.03
2023-06-11T03:59:47.729Z,101242.69
2023-06-11T04:02:16.909Z,101244.47
2023-06-11T04:04:44.991Z,101247.13
2023-06-11T04:07:12.799Z,101249.81
2023-06-11T04:09:41.453Z,101250.72
2023-06-11T04:12:10.178Z,101251.59
2023-06-11T04:14:38.292Z,101256.03
2023-06-11T04:17:07.062Z,101249.78
2023-06-11T04:19:36.532Z,101256.00
2023-06-11T04:22:04.704Z,101253.31
2023-06-11T04:24:34.419Z,101251.53
2023-06-11T04:27:02.518Z,101253.31
2023-06-11T04:29:30.816Z,101247.09
2023-06-11T04:32:04.347Z,101243.50
2023-06-11T04:34:35.069Z,101247.06
2023-06-11T04:37:05.987Z,101251.50
2023-06-11T04:39:34.176Z,101248.78
2023-06-11T04:42:06.618Z,101251.41
2023-06-11T04:44:37.637Z,101249.56
2023-06-11T04:47:07.845Z,101250.44
2023-06-11T04:49:38.459Z,101242.34
2023-06-11T04:52:09.573Z,101249.44
2023-06-11T04:54:37.381Z,101252.06
2023-06-11T04:57:06.935Z,101253.78
2023-06-11T04:59:34.938Z,101242.13
2023-06-11T05:02:02.781Z,101252.78
2023-06-11T05:04:30.481Z,101254.44
2023-06-11T05:07:01.288Z,101253.50
2023-06-11T05:09:31.365Z,101253.44
2023-06-11T05:11:59.644Z,101253.34
2023-06-11T05:14:28.276Z,101254.13
2023-06-11T05:16:56.714Z,101256.69
2023-06-11T05:19:24.583Z,101254.78
2023-06-11T05:21:52.300Z,101250.22
2023-06-11T05:24:23.329Z,101253.69
2023-06-11T05:26:57.917Z,101257.09
2023-06-11T05:29:27.547Z,101259.69
2023-06-11T05:31:57.610Z,101264.88
2023-06-11T05:34:27.365Z,101265.66
2023-06-11T05:36:58.150Z,101264.63
2023-06-11T05:39:25.979Z,101264.53
2023-06-11T05:41:53.790Z,101267.97
2023-06-11T05:44:24.971Z,101269.59
2023-06-11T05:46:52.894Z,101270.41
2023-06-11T05:49:20.986Z,101275.66
2023-06-11T05:51:49.258Z,101273.78
2023-06-11T05:54:18.071Z,101276.31
2023-06-11T05:56:46.988Z,101278.06
2023-06-11T05:59:15.834Z,101281.53
2023-06-11T06:01:47.157Z,101281.41
2023-06-11T06:04:18.139Z,101281.25
2023-06-11T06:06:46.641Z,101277.56
2023-06-11T06:09:15.539Z,101286.41
2023-06-11T06:11:44.544Z,101287.22
2023-06-11T06:14:12.599Z,101285.31
2023-06-11T06:16:41.430Z,101280.66
2023-06-11T06:19:15.040Z,101278.72
2023-06-11T06:21:42.756Z,101282.13
2023-06-11T06:24:12.434Z,101278.41
2023-06-11T06:26:42.177Z,101282.72
2023-06-11T06:29:10.589Z,101279.81
2023-06-11T06:31:39.312Z,101282.34
2023-06-11T06:34:08.380Z,101281.25
2023-06-11T06:36:38.420Z,101288.25
2023-06-11T06:39:06.782Z,101285.41
2023-06-11T06:41:34.505Z,101287.03
2023-06-11T06:44:09.061Z,101282.41
2023-06-11T06:46:36.766Z,101296.53
2023-06-11T06:49:04.811Z,101288.25
2023-06-11T06:51:33.916Z,101280.91
2023-06-11T06:54:03.640Z,101286.00
2023-06-11T06:56:31.374Z,101290.25
2023-06-11T06:58:59.082Z,101298.09
2023-06-11T07:01:28.368Z,101291.69
2023-06-11T07:03:56.534Z,101291.50
2023-06-11T07:06:26.098Z,101302.06
2023-06-11T07:08:54.165Z,101298.34
2023-06-11T07:11:25.127Z,101297.22
2023-06-11T07:13:53.464Z,101289.88
2023-06-11T07:16:21.445Z,101288.78
2023-06-11T07:18:54.331Z,101289.38
2023-06-11T07:21:22.066Z,101295.38
2023-06-11T07:23:49.727Z,101292.44
2023-06-11T07:26:19.246Z,101297.50
2023-06-11T07:28:49.151Z,101295.38
2023-06-11T07:31:17.948Z,101298.63
2023-06-11T07:33:46.010Z,101305.47
2023-06-11T07:36:14.283Z,101300.63
2023-06-11T07:38:43.799Z,101302.88
2023-06-11T07:41:11.724Z,101298.88
2023-06-11T07:43:39.514Z,101300.25
2023-06-11T07:46:09.642Z,101299.88
2023-06-11T07:48:42.313Z,101299.50
2023-06-11T07:51:10.315Z,101297.41
2023-06-11T07:53:39.186Z,101299.78
2023-06-11T07:56:07.981Z,101299.47
2023-06-11T07:58:37.916Z,101297.38
2023-06-11T08:01:05.555Z,101300.66
2023-06-11T08:03:38.717Z,101306.53
2023-06-11T08:06:06.571Z,101307.09
2023-06-11T08:08:34.258Z,101299.41
2023-06-11T08:11:02.035Z,101293.53
2023-06-11T08:13:29.693Z,101305.72
2023-06-11T08:15:57.351Z,101296.34
2023-06-11T08:18:25.023Z,101296.78
2023-06-11T08:20:54.760Z,101290.88
2023-06-11T08:23:22.383Z,101293.06
2023-06-11T08:25:50.008Z,101281.63
2023-06-11T08:28:20.683Z,101288.22
2023-06-11T08:30:48.392Z,101287.66
2023-06-11T08:33:16.043Z,101292.41
2023-06-11T08:35:43.937Z,101289.09
2023-06-11T08:38:13.024Z,101285.94
2023-06-11T08:40:42.012Z,101290.66
2023-06-11T08:43:09.830Z,101283.66
2023-06-11T08:45:37.994Z,101287.38
2023-06-11T08:48:07.222Z,101283.00
2023-06-11T08:50:34.885Z,101282.34
2023-06-11T08:53:06.039Z,101281.66
2023-06-11T08:55:35.258Z,101280.94
2023-06-11T08:58:03.180Z,101286.25
2023-06-11T09:00:30.932Z,101269.13
2023-06-11T09:02:58.875Z,101278.13
2023-06-11T09:05:27.118Z,101278.19
2023-06-11T09:07:56.737Z,101277.59
2023-06-11T09:10:24.460Z,101267.75
2023-06-11T09:12:56.038Z,101266.38
2023-06-11T09:15:26.454Z,101258.81
2023-06-11T09:17:55.512Z,101257.47
2023-06-11T09:20:24.459Z,101256.50
2023-06-11T09:22:54.018Z,101260.41
2023-06-11T09:25:21.655Z,101260.69
2023-06-11T09:27:49.935Z,101254.59
2023-06-11T09:30:20.784Z,101253.84
2023-06-11T09:32:50.730Z,101252.00
2023-06-11T09:35:21.836Z,101252.94
2023-06-11T09:37:52.066Z,101260.22
2023-06-11T09:40:24.326Z,101256.75
2023-06-11T09:42:52.936Z,101254.59
2023-06-11T09:45:24.779Z,101248.50
2023-06-11T09:47:53.060Z,101249.88
2023-06-11T09:50:23.241Z,101249.53
2023-06-11T09:52:52.458Z,101241.66
2023-06-11T09:55:22.685Z,101243.75
2023-06-11T09:57:53.237Z,101249.13
2023-06-11T10:00:23.176Z,101250.16
2023-06-11T10:02:51.332Z,101258.06
2023-06-11T10:05:19.183Z,101248.19
2023-06-11T10:07:51.008Z,101256.91
2023-06-11T10:10:21.947Z,101257.53
2023-06-11T10:12:51.205Z,101251.34
2023-06-11T10:15:20.802Z,101262.63
2023-06-11T10:17:52.073Z,101255.75
2023-06-11T10:20:28.540Z,101256.38
2023-06-11T10:23:11.025Z,101249.88
2023-06-11T10:25:43.031Z,101253.78
2023-06-11T10:28:11.433Z,101258.38
2023-06-11T10:30:39.449Z,101252.69
2023-06-11T10:33:08.673Z,101252.31
2023-06-11T10:35:37.945Z,101257.53
2023-06-11T10:38:07.174Z,101251.13
2023-06-11T10:40:36.424Z,101252.50
2023-06-11T10:43:06.648Z,101250.16
2023-06-11T10:45:36.944Z,101246.00
2023-06-11T10:48:06.050Z,101252.53
2023-06-11T10:50:36.405Z,101251.53
2023-06-11T10:53:09.930Z,101257.25
2023-06-11T10:55:37.971Z,101260.59
2023-06-11T10:58:05.944Z,101248.59
2023-06-11T11:00:39.330Z,101242.09
2023-06-11T11:03:07.820Z,101241.03
2023-06-11T11:05:42.682Z,101239.28
2023-06-11T11:08:10.533Z,101234.91
2023-06-11T11:10:38.305Z,101242.28
2023-06-11T11:13:06.057Z,101238.38
2023-06-11T11:15:33.818Z,101239.94
2023-06-11T11:18:01.670Z,101230.13
2023-06-11T11:20:30.080Z,101221.47
2023-06-11T11:22:59.647Z,101225.00
2023-06-11T11:25:30.815Z,101218.53
2023-06-11T11:27:58.899Z,101211.31
2023-06-11T11:30:29.462Z,101214.84
2023-06-11T11:32:58.211Z,101219.59
2023-06-11T11:35:27.661Z,101208.78
2023-06-11T11:37:55.893Z,101211.78
2023-06-11T11:40:25.303Z,101210.91
2023-06-11T11:42:54.207Z,101209.81
2023-06-11T11:45:23.805Z,101197.97
2023-06-11T11:47:53.565Z,101194.19
2023-06-11T11:50:24.095Z,101196.59
2023-06-11T11:53:05.533Z,101184.81
2023-06-11T11:55:44.838Z,101198.38
2023-06-11T11:58:19.900Z,101188.72
2023-06-11T12:00:50.215Z,101197.31
2023-06-11T12:03:20.618Z,101195.84
2023-06-11T12:05:58.415Z,101194.53
2023-06-11T12:08:26.549Z,101188.81
2023-06-11T12:10:55.774Z,101196.47
2023-06-11T12:13:23.625Z,101185.81
2023-06-11T12:15:51.364Z,101186.09
2023-06-11T12:18:19.633Z,101181.47
2023-06-11T12:20:47.768Z,101183.78
2023-06-11T12:23:15.585Z,101174.47
2023-06-11T12:25:44.078Z,101167.53
2023-06-11T12:28:13.097Z,101169.44
2023-06-11T12:30:42.738Z,101174.81
2023-06-11T12:33:11.648Z,101168.91
2023-06-11T12:35:39.529Z,101170.13
2023-06-11T12:38:07.695Z,101172.38
2023-06-11T12:40:35.476Z,101180.19
2023-06-11T12:43:03.310Z,101169.44
2023-06-11T12:45:34.114Z,101165.13
2023-06-11T12:48:02.065Z,101164.41
2023-06-11T12:50:29.809Z,101167.34
2023-06-11T12:52:57.996Z,101160.03
2023-06-11T12:55:26.466Z,101158.13
2023-06-11T12:57:54.304Z,101151.03
2023-06-11T13:00:23.323Z,101156.56
2023-06-11T13:02:52.831Z,101156.56
2023-06-11T13:05:22.557Z,101153.81
2023-06-11T13:07:50.863Z,101147.03
2023-06-11T13:10:19.641Z,101156.09
2023-06-11T13:12:47.341Z,101145.53
2023-06-11T13:15:15.012Z,101153.31
2023-06-11T13:17:42.702Z,101144.66
2023-06-11T13:20:12.837Z,101142.78
2023-06-11T13:22:40.833Z,101141.72
2023-06-11T13:25:09.865Z,101142.94
2023-06-11T13:27:37.633Z,101148.09
2023-06-11T13:30:10.632Z,101146.19
2023-06-11T13:32:39.303Z,101144.63
2023-06-11T13:35:07.864Z,101144.06
2023-06-11T13:37:37.039Z,101145.31
2023-06-11T13:40:05.425Z,101142.28
2023-06-11T13:42:33.104Z,101132.91
2023-06-11T13:45:04.409Z,101133.06
2023-06-11T13:47:32.112Z,101132.88
2023-06-11T13:49:59.801Z,101134.59
2023-06-11T13:52:27.474Z,101129.94
2023-06-11T13:54:56.460Z,101121.28
2023-06-11T13:57:28.738Z,101128.38
2023-06-11T13:59:56.676Z,101121.25
2023-06-11T14:02:24.812Z,101119.69
2023-06-11T14:04:54.232Z,101117.94
2023-06-11T14:07:21.956Z,101107.06
2023-06-11T14:09:49.914Z,101103.41
2023-06-11T14:12:18.958Z,101105.50
2023-06-11T14:14:46.814Z,101102.34
2023-06-11T14:17:14.433Z,101112.72
2023-06-11T14:19:42.170Z,101102.00
2023-06-11T14:22:09.815Z,101095.09
2023-06-11T14:24:37.600Z,101105.47
2023-06-11T14:27:06.022Z,101106.69
2023-06-11T14:29:35.010Z,101106.16
2023-06-11T14:32:03.827Z,101107.75
2023-06-11T14:34:32.102Z,101099.78
2023-06-11T14:36:59.774Z,101095.72
2023-06-11T14:39:27.457Z,101100.50
2023-06-11T14:41:55.858Z,101097.66
2023-06-11T14:44:23.590Z,101098.91
2023-06-11T14:46:53.515Z,101100.09
2023-06-11T14:49:22.035Z,101094.28
2023-06-11T14:51:50.112Z,101096.41
2023-06-11T14:54:17.947Z,101085.16
2023-06-11T14:56:45.719Z,101084.69
2023-06-11T14:59:13.586Z,101095.13
2023-06-11T15:01:42.694Z,101093.19
2023-06-11T15:04:12.705Z,101083.41
2023-06-11T15:06:40.733Z,101084.66
2023-06-11T15:09:08.754Z,101087.03
2023-06-11T15:11:36.666Z,101079.56
2023-06-11T15:14:04.732Z,101073.47
2023-06-11T15:16:32.469Z,101080.25
2023-06-11T15:19:00.157Z,101071.97
2023-06-11T15:21:29.254Z,101069.25
2023-06-11T15:23:57.044Z,101073.16
2023-06-11T15:26:24.742Z,101069.47
2023-06-11T15:28:52.443Z,101064.69
2023-06-11T15:31:20.211Z,101064.66
2023-06-11T15:33:47.869Z,101053.22
2023-06-11T15:36:15.462Z,101062.47
2023-06-11T15:38:44.479Z,101065.09
2023-06-11T15:41:15.178Z,101057.06
2023-06-11T15:43:43.880Z,101048.66
2023-06-11T15:46:11.577Z,101056.16
2023-06-11T15:48:41.265Z,101048.47
2023-06-11T15:51:09.078Z,101055.41
2023-06-11T15:53:36.718Z,101052.28
2023-06-11T15:56:06.221Z,101043.09
2023-06-11T15:58:33.890Z,101039.84
2023-06-11T16:01:01.647Z,101038.91
2023-06-11T16:03:29.576Z,101041.13
2023-06-11T16:05:57.382Z,101038.84
2023-06-11T16:08:25.020Z,101043.41
2023-06-11T16:10:52.728Z,101040.00
2023-06-11T16:13:21.720Z,101036.53
2023-06-11T16:15:49.718Z,101040.47
2023-06-11T16:18:17.433Z,101029.03
2023-06-11T16:20:45.120Z,101037.03
2023-06-11T16:23:12.829Z,101030.22
2023-06-11T16:25:40.514Z,101032.84
2023-06-11T16:28:08.186Z,101033.84
2023-06-11T16:30:37.382Z,101031.50
2023-06-11T16:33:05.325Z,101030.50
2023-06-11T16:35:33.296Z,101018.56
2023-06-11T16:38:00.994Z,101029.69
2023-06-11T16:40:28.661Z,101020.44
2023-06-11T16:42:56.308Z,101016.72
2023-06-11T16:45:24.139Z,101023.28
2023-06-11T16:47:53.244Z,101022.41
2023-06-11T16:50:20.983Z,101014.78
2023-06-11T16:52:52.748Z,101021.84
2023-06-11T16:55:22.317Z,101017.72
2023-06-11T16:57:50.808Z,101014.38
2023-06-11T17:00:20.408Z,101009.38
2023-06-11T17:02:50.206Z,101006.88
2023-06-11T17:05:19.770Z,101012.84
2023-06-11T17:07:51.129Z,100998.66
2023-06-11T17:10:18.880Z,100999.75
2023-06-11T17:12:47.328Z,100999.22
2023-06-11T17:15:17.182Z,101005.16
2023-06-11T17:17:45.722Z,100997.69
2023-06-11T17:20:14.853Z,101002.94
2023-06-11T17:22:47.058Z,101003.53
2023-06-11T17:25:15.332Z,101006.72
2023-06-11T17:27:43.095Z,100996.41
2023-06-11T17:30:11.494Z,101000.44
2023-06-11T17:32:39.423Z,100990.22
2023-06-11T17:35:08.161Z,100991.69
2023-06-11T17:37:36.001Z,100994.97
2023-06-11T17:40:05.698Z,100990.91
2023-06-11T17:42:33.550Z,100985.25
2023-06-11T17:45:01.262Z,100994.03
2023-06-11T17:47:29.036Z,100988.13
2023-06-11T17:49:56.849Z,100988.69
2023-06-11T17:52:24.598Z,100991.78
2023-06-11T17:54:52.635Z,100987.59
2023-06-11T17:57:22.088Z,100980.84
2023-06-11T17:59:49.864Z,100986.78
2023-06-11T18:02:17.547Z,100986.53
2023-06-11T18:04:45.162Z,100990.78
2023-06-11T18:07:12.804Z,100986.84
2023-06-11T18:09:40.605Z,100991.97
2023-06-11T18:12:09.422Z,100987.03
2023-06-11T18:14:38.403Z,100979.41
2023-06-11T18:17:06.836Z,100989.22
2023-06-11T18:19:35.616Z,100988.00
2023-06-11T18:22:03.296Z,100984.13
2023-06-11T18:24:32.255Z,100979.28
2023-06-11T18:27:00.004Z,100993.63
2023-06-11T18:29:28.593Z,100987.81
2023-06-11T18:31:59.030Z,100985.72
2023-06-11T18:34:26.805Z,100985.47
2023-06-11T18:36:54.489Z,100983.31
2023-06-11T18:39:22.223Z,100990.22
2023-06-11T18:41:49.901Z,100991.59
2023-06-11T18:44:18.633Z,100993.94
2023-06-11T18:46:46.304Z,100986.38
2023-06-11T18:49:15.446Z,100991.44
2023-06-11T18:51:43.071Z,100981.16
2023-06-11T18:54:11.421Z,100984.53
2023-06-11T18:56:39.095Z,100983.25
2023-06-11T18:59:07.681Z,100981.22
2023-06-11T19:01:35.473Z,100985.38
2023-06-11T19:04:03.175Z,100982.63
2023-06-11T19:06:32.232Z,100989.59
2023-06-11T19:08:59.880Z,100993.75
2023-06-11T19:11:27.721Z,100990.63
2023-06-11T19:13:55.651Z,100982.22
2023-06-11T19:16:23.335Z,100988.28
2023-06-11T19:18:51.034Z,100993.31
2023-06-11T19:21:23.980Z,100993.91
2023-06-11T19:23:52.997Z,100997.00
2023-06-11T19:26:21.253Z,100996.56
2023-06-11T19:28:50.234Z,100995.09
2023-06-11T19:31:17.959Z,101000.00
2023-06-11T19:33:46.454Z,100996.78
2023-06-11T19:36:14.148Z,100998.03
2023-06-11T19:38:41.831Z,101000.13
2023-06-11T19:41:13.094Z,101005.03
2023-06-11T19:43:42.629Z,100997.28
2023-06-11T19:46:10.694Z,101001.31
2023-06-11T19:48:38.388Z,101003.50
2023-06-11T19:51:06.044Z,101011.97
2023-06-11T19:53:33.720Z,101018.59
2023-06-11T19:56:01.336Z,101012.91
2023-06-11T19:58:30.341Z,101016.78
2023-06-11T20:00:58.087Z,101023.47
2023-06-11T20:03:25.758Z,101022.13
2023-06-11T20:05:53.515Z,101027.06
2023-06-11T20:08:21.377Z,101023.81
2023-06-11T20:10:49.063Z,101019.59
2023-06-11T20:13:16.804Z,101035.44
2023-06-11T20:15:46.016Z,101030.44
2023-06-11T20:18:13.646Z,101037.13
2023-06-11T20:20:41.742Z,101033.84
2023-06-11T20:23:10.006Z,101030.56
2023-06-11T20:25:37.769Z,101032.81
2023-06-11T20:28:05.811Z,101024.19
2023-06-11T20:30:33.444Z,101031.66
2023-06-11T20:33:02.563Z,101029.34
2023-06-11T20:35:30.586Z,101040.47
2023-06-11T20:37:58.269Z,101042.59
2023-06-11T20:40:26.087Z,101044.69
2023-06-11T20:42:53.777Z,101037.84
2023-06-11T20:45:21.442Z,101039.88
2023-06-11T20:47:49.321Z,101049.19
2023-06-11T20:50:18.378Z,101042.31
2023-06-11T20:52:46.096Z,101042.56
2023-06-11T20:55:13.767Z,101042.81
2023-06-11T20:57:41.517Z,101048.47
2023-06-11T21:00:10.576Z,101042.38
2023-06-11T21:02:38.581Z,101040.88
2023-06-11T21:05:06.422Z,101050.97
2023-06-11T21:07:36.052Z,101042.25
2023-06-11T21:10:03.748Z,101045.31
2023-06-11T21:12:31.655Z,101037.53
2023-06-11T21:15:00.242Z,101040.53
2023-06-11T21:17:28.744Z,101043.56
2023-06-11T21:19:56.423Z,101043.91
2023-06-11T21:22:24.099Z,101053.19
2023-06-11T21:24:53.100Z,101051.59
2023-06-11T21:27:20.808Z,101051.78
2023-06-11T21:29:48.514Z,101051.13
2023-06-11T21:32:16.185Z,101056.78
2023-06-11T21:34:44.108Z,101056.13
2023-06-11T21:37:11.817Z,101062.56
2023-06-11T21:39:39.445Z,101062.78
2023-06-11T21:42:09.849Z,101060.31
2023-06-11T21:44:38.413Z,101065.91
2023-06-11T21:47:06.898Z,101058.13
2023-06-11T21:49:34.586Z,101069.16
2023-06-11T21:52:03.033Z,101064.09
2023-06-11T21:54:30.812Z,101064.31
2023-06-11T21:56:58.946Z,101074.38
2023-06-11T21:59:27.920Z,101072.75
2023-06-11T22:01:55.572Z,101066.59
2023-06-11T22:04:23.203Z,101069.34
2023-06-11T22:06:53.921Z,101074.84
2023-06-11T22:09:23.041Z,101066.78
2023-06-11T22:11:50.975Z,101070.41
2023-06-11T22:14:18.621Z,101075.78
2023-06-11T22:16:48.459Z,101079.41
2023-06-11T22:19:16.535Z,101080.28
2023-06-11T22:21:45.023Z,101086.66
2023-06-11T22:24:12.803Z,101087.56
2023-06-11T22:26:41.983Z,101093.00
2023-06-11T22:29:09.694Z,101092.19
2023-06-11T22:31:40.721Z,101091.34
2023-06-11T22:34:10.313Z,101096.72
2023-06-11T22:36:38.402Z,101095.06
2023-06-11T22:39:06.214Z,101099.56
2023-06-11T22:41:33.900Z,101100.56
2023-06-11T22:44:01.725Z,101104.25
2023-06-11T22:46:29.496Z,101105.31
2023-06-11T22:48:57.910Z,101112.63
2023-06-11T22:51:26.956Z,101104.66
2023-06-11T22:53:54.645Z,101107.44
2023-06-11T22:56:23.856Z,101104.00
2023-06-11T22:58:52.453Z,101111.25
2023-06-11T23:01:21.850Z,101108.66
2023-06-11T23:03:49.800Z,101107.91
2023-06-11T23:06:17.502Z,101107.13
2023-06-11T23:08:46.740Z,101108.09
2023-06-11T23:11:14.813Z,101108.16
2023-06-11T23:13:42.524Z,101117.22
2023-06-11T23:16:11.413Z,101109.22
2023-06-11T23:18:39.206Z,101117.38
2023-06-11T23:21:07.430Z,101111.22
2023-06-11T23:23:38.347Z,101111.34
2023-06-11T23:26:10.602Z,101105.16
2023-06-11T23:28:38.630Z,101107.09
2023-06-11T23:31:07.103Z,101108.13
2023-06-11T23:33:34.816Z,101109.13
2023-06-11T23:36:02.593Z,101102.91
2023-06-11T23:38:30.373Z,101116.47
2023-06-11T23:40:58.009Z,101103.19
2023-06-11T23:43:26.989Z,101099.63
2023-06-11T23:45:54.671Z,101102.44
2023-06-11T23:48:22.367Z,101100.75
2023-06-11T23:50:50.046Z,101091.97
2023-06-11T23:53:17.704Z,101100.09
2023-06-11T23:55:45.325Z,101106.47
2023-06-11T23:58:18.869Z,101100.28
